Time;durP1;ratioP1;P1;durP2;ratioP2;P2;SDS_P1;SDS_P2;PMS_P1;PMS_P2;Temp;Humidity;BMP_temperature;BMP_pressure;BME280_temperature;BME280_humidity;BME280_pressure;Samples;Min_cycle;Max_cycle;Signal;HPM_P1;HPM_P2
2021/05/13 00:01:33;;;;;;;1999.90;999.90;;;10.00;99.90;;;;;;5072653;28;20227;-76
2021/05/13 00:03:59;;;;;;;1999.90;999.90;;;10.00;99.90;;;;;;5072691;28;20188;-76
2021/05/13 00:06:25;;;;;;;1999.90;999.90;;;10.00;99.90;;;;;;5072513;28;20300;-77
2021/05/13 00:08:57;;;;;;;1999.90;999.90;;;10.00;99.90;;;;;;5072613;28;20184;-76
2021/05/13 00:11:32;;;;;;;1999.90;999.90;;;10.00;99.90;;;;;;5072854;28;20740;-76
2021/05/13 00:13:59;;;;;;;1999.90;999.90;;;9.90;99.90;;;;;;5066952;28;20188;-76
2021/05/13 00:16:30;;;;;;;1999.90;999.90;;;9.90;99.90;;;;;;5065372;28;20208;-76
2021/05/13 00:18:58;;;;;;;1999.90;999.90;;;10.00;99.90;;;;;;5072322;28;20260;-76
2021/05/13 00:21:24;;;;;;;1999.90;999.90;;;9.90;99.90;;;;;;5072563;28;20196;-76
2021/05/13 00:23:50;;;;;;;1999.90;999.90;;;9.90;99.90;;;;;;5072425;28;20608;-76
2021/05/13 00:26:19;;;;;;;1999.90;999.90;;;9.90;99.90;;;;;;5074208;28;20649;-77
2021/05/13 00:28:44;;;;;;;1999.90;999.90;;;9.80;99.90;;;;;;5076376;28;20224;-76
2021/05/13 00:31:10;;;;;;;1999.90;999.90;;;9.80;99.90;;;;;;5076188;28;20204;-76
2021/05/13 00:33:35;;;;;;;1999.90;999.90;;;9.80;99.90;;;;;;5076036;28;20184;-77
2021/05/13 00:36:01;;;;;;;1999.90;999.90;;;9.80;99.90;;;;;;5076015;28;20563;-76
2021/05/13 00:38:27;;;;;;;1999.90;999.90;;;9.80;99.90;;;;;;5076007;28;20282;-76
2021/05/13 00:40:55;;;;;;;1999.90;999.90;;;9.60;99.90;;;;;;5075794;28;20194;-76
2021/05/13 00:43:21;;;;;;;1999.90;999.90;;;9.60;99.90;;;;;;5075855;28;20669;-76
2021/05/13 00:45:46;;;;;;;1999.90;999.90;;;9.60;99.90;;;;;;5075760;28;20183;-76
2021/05/13 00:48:17;;;;;;;1999.90;999.90;;;9.60;99.90;;;;;;5074513;28;20185;-76
2021/05/13 00:50:43;;;;;;;1999.90;999.90;;;9.50;99.90;;;;;;5075907;28;20228;-76
2021/05/13 00:53:10;;;;;;;1999.90;999.90;;;9.60;99.90;;;;;;5075787;28;20644;-76
2021/05/13 00:55:37;;;;;;;1999.90;999.90;;;9.60;99.90;;;;;;5075943;28;20517;-76
2021/05/13 00:58:04;;;;;;;1999.90;999.90;;;9.60;99.90;;;;;;5072537;28;20692;-76
2021/05/13 01:03:33;;;;;;;1999.90;999.90;;;9.50;99.90;;;;;;5049751;28;20175;-77
2021/05/13 01:05:59;;;;;;;1999.90;999.90;;;9.40;99.90;;;;;;5078362;28;20191;-77
2021/05/13 01:08:25;;;;;;;1999.90;999.90;;;9.50;99.90;;;;;;5077101;28;20261;-77
2021/05/13 01:10:50;;;;;;;1999.90;999.90;;;9.40;99.90;;;;;;5073442;28;20199;-78
2021/05/13 01:13:20;;;;;;;1999.90;999.90;;;9.50;99.90;;;;;;5071896;28;20176;-77
2021/05/13 01:16:05;;;;;;;1999.90;999.90;;;9.50;99.90;;;;;;5072776;28;20171;-77
2021/05/13 01:18:30;;;;;;;1999.90;999.90;;;9.50;99.90;;;;;;5072514;28;20200;-77
2021/05/13 01:20:56;;;;;;;1999.90;999.90;;;9.50;99.90;;;;;;5072602;28;20191;-77
2021/05/13 01:23:22;;;;;;;1999.90;999.90;;;9.50;99.90;;;;;;5072396;28;20563;-78
2021/05/13 01:25:54;;;;;;;1999.90;999.90;;;9.50;99.90;;;;;;5071515;28;20192;-77
2021/05/13 01:28:25;;;;;;;1999.90;999.90;;;9.40;99.90;;;;;;5073034;28;20186;-77
2021/05/13 01:30:52;;;;;;;1999.90;999.90;;;9.30;99.90;;;;;;5072786;28;20199;-77
2021/05/13 01:33:23;;;;;;;1999.90;999.90;;;9.20;99.90;;;;;;5072920;28;20181;-77
2021/05/13 01:35:50;;;;;;;1999.90;999.90;;;9.20;99.90;;;;;;5072738;28;20174;-76
2021/05/13 01:38:17;;;;;;;1999.90;999.90;;;9.20;99.90;;;;;;5062465;28;20201;-77
2021/05/13 01:40:51;;;;;;;1999.90;999.90;;;9.20;99.90;;;;;;5066656;28;20211;-77
2021/05/13 01:43:17;;;;;;;1999.90;999.90;;;9.20;99.90;;;;;;5071120;28;20222;-78
2021/05/13 01:45:43;;;;;;;1999.90;999.90;;;9.20;99.90;;;;;;5070519;28;20178;-77
2021/05/13 01:48:08;;;;;;;1999.90;999.90;;;9.20;99.90;;;;;;5072189;28;20315;-78
2021/05/13 01:50:35;;;;;;;1999.90;999.90;;;9.30;99.90;;;;;;5072247;28;20684;-77
2021/05/13 01:53:05;;;;;;;1999.90;999.90;;;9.20;99.90;;;;;;5071972;28;20190;-77
2021/05/13 01:55:32;;;;;;;1999.90;999.90;;;9.20;99.90;;;;;;5071776;28;20564;-76
2021/05/13 01:57:57;;;;;;;1999.90;999.90;;;9.20;99.90;;;;;;5072249;28;20589;-77
2021/05/13 02:00:23;;;;;;;1999.90;999.90;;;9.20;99.90;;;;;;5072477;28;20242;-77
2021/05/13 02:02:50;;;;;;;1999.90;999.90;;;9.30;99.90;;;;;;5071083;28;20177;-76
2021/05/13 02:05:17;;;;;;;1999.90;999.90;;;9.30;99.90;;;;;;5071947;28;20187;-76
2021/05/13 02:07:43;;;;;;;1999.90;999.90;;;9.30;99.90;;;;;;5071891;28;20178;-78
2021/05/13 02:10:12;;;;;;;1999.90;999.90;;;9.30;99.90;;;;;;5071802;28;20956;-77
2021/05/13 02:12:39;;;;;;;1999.90;999.90;;;9.30;99.90;;;;;;5071893;28;20185;-77
2021/05/13 02:15:09;;;;;;;1999.90;999.90;;;9.30;99.90;;;;;;5071753;28;20270;-76
2021/05/13 02:17:35;;;;;;;1999.90;999.90;;;9.30;99.90;;;;;;5066209;28;20197;-77
2021/05/13 02:20:02;;;;;;;1999.90;999.90;;;9.30;99.90;;;;;;5070773;28;20197;-77
2021/05/13 02:22:28;;;;;;;1999.90;999.90;;;9.20;99.90;;;;;;5071620;28;20283;-77
2021/05/13 02:24:53;;;;;;;1999.90;999.90;;;9.30;99.90;;;;;;5071707;28;20268;-77
2021/05/13 02:27:19;;;;;;;1999.90;999.90;;;9.30;99.90;;;;;;5070223;28;20177;-77
2021/05/13 02:29:44;;;;;;;1999.90;999.90;;;9.30;99.90;;;;;;5071433;28;20207;-77
2021/05/13 02:32:10;;;;;;;1999.90;999.90;;;9.20;99.90;;;;;;5070085;28;20176;-76
2021/05/13 02:34:36;;;;;;;1999.90;999.90;;;9.10;99.90;;;;;;5070664;28;20270;-77
2021/05/13 02:37:01;;;;;;;1999.90;999.90;;;9.30;99.90;;;;;;5071747;28;20258;-76
2021/05/13 02:39:27;;;;;;;1999.90;999.90;;;9.30;99.90;;;;;;5072579;28;20281;-76
2021/05/13 02:41:53;;;;;;;1999.90;999.90;;;9.30;99.90;;;;;;5071405;28;20192;-77
2021/05/13 02:44:18;;;;;;;1999.90;999.90;;;9.30;99.90;;;;;;5071158;28;20288;-77
2021/05/13 02:46:44;;;;;;;1999.90;999.90;;;9.30;99.90;;;;;;5070767;28;20659;-77
2021/05/13 02:49:10;;;;;;;1999.90;999.90;;;9.30;99.90;;;;;;5053056;28;20580;-77
2021/05/13 02:51:35;;;;;;;1999.90;999.90;;;9.30;99.90;;;;;;5051770;28;20225;-76
2021/05/13 02:54:01;;;;;;;1999.90;999.90;;;9.30;99.90;;;;;;5067968;28;20216;-76
2021/05/13 02:56:27;;;;;;;1999.90;999.90;;;9.30;99.90;;;;;;5070643;28;20170;-76
2021/05/13 02:58:53;;;;;;;1999.90;999.90;;;9.30;99.90;;;;;;5070588;28;20216;-77
2021/05/13 03:03:47;;;;;;;1999.90;999.90;;;9.20;99.90;;;;;;5070588;28;20169;-77
2021/05/13 03:06:13;;;;;;;1999.90;999.90;;;9.20;99.90;;;;;;5070546;28;20675;-77
2021/05/13 03:08:39;;;;;;;1999.90;999.90;;;9.10;99.90;;;;;;5070900;28;20189;-76
2021/05/13 03:11:05;;;;;;;1999.90;999.90;;;9.20;99.90;;;;;;5071151;28;20194;-77
2021/05/13 03:13:31;;;;;;;1999.90;999.90;;;9.20;99.90;;;;;;5070163;28;20179;-77
2021/05/13 03:15:56;;;;;;;1999.90;999.90;;;9.20;99.90;;;;;;5072554;28;20181;-76
2021/05/13 03:18:25;;;;;;;1999.90;999.90;;;9.30;99.90;;;;;;5071103;28;20250;-77
2021/05/13 03:23:49;;;;;;;1999.90;999.90;;;9.20;99.90;;;;;;5042787;28;20271;-77
2021/05/13 03:26:15;;;;;;;1999.90;999.90;;;9.10;99.90;;;;;;5071118;28;20568;-76
2021/05/13 03:28:40;;;;;;;1999.90;999.90;;;9.00;99.90;;;;;;5070879;28;20180;-77
2021/05/13 03:31:06;;;;;;;1999.90;999.90;;;9.00;99.90;;;;;;5069829;28;20206;-77
2021/05/13 03:33:31;;;;;;;1999.90;999.90;;;9.00;99.90;;;;;;5070859;28;20183;-77
2021/05/13 03:35:57;;;;;;;1999.90;999.90;;;8.90;99.90;;;;;;5069551;28;20173;-77
2021/05/13 03:38:23;;;;;;;1999.90;999.90;;;8.90;99.90;;;;;;5070801;28;20205;-77
2021/05/13 03:40:48;;;;;;;1999.90;999.90;;;8.90;99.90;;;;;;5071154;28;20680;-76
2021/05/13 03:43:15;;;;;;;1999.90;999.90;;;8.90;99.90;;;;;;5072340;28;20181;-76
2021/05/13 03:45:40;;;;;;;1999.90;999.90;;;8.90;99.90;;;;;;5071706;28;20207;-77
2021/05/13 03:48:07;;;;;;;1999.90;999.90;;;8.80;99.90;;;;;;5070829;28;20569;-76
2021/05/13 03:50:35;;;;;;;1999.90;999.90;;;8.80;99.90;;;;;;5070700;28;20263;-76
2021/05/13 03:53:02;;;;;;;1999.90;999.90;;;8.70;99.90;;;;;;5070604;28;20178;-76
2021/05/13 03:55:28;;;;;;;1999.90;999.90;;;8.80;99.90;;;;;;5070600;28;20608;-77
2021/05/13 03:57:56;;;;;;;1999.90;999.90;;;8.70;99.90;;;;;;5070521;28;20207;-76
2021/05/13 04:00:29;;;;;;;1999.90;999.90;;;8.70;99.90;;;;;;5069722;28;20197;-78
2021/05/13 04:02:55;;;;;;;1999.90;999.90;;;8.70;99.90;;;;;;5061848;28;20170;-77
2021/05/13 04:05:20;;;;;;;1999.90;999.90;;;8.70;99.90;;;;;;5063596;28;20257;-76
2021/05/13 04:07:48;;;;;;;1999.90;999.90;;;8.60;99.90;;;;;;5068035;28;20189;-76
2021/05/13 04:10:15;;;;;;;1999.90;999.90;;;8.60;99.90;;;;;;5070901;28;20651;-78
2021/05/13 04:12:41;;;;;;;1999.90;999.90;;;8.50;99.90;;;;;;5070399;28;20275;-76
2021/05/13 04:15:08;;;;;;;1999.90;999.90;;;8.40;99.90;;;;;;5073208;28;20177;-76
2021/05/13 04:17:34;;;;;;;1999.90;999.90;;;8.30;99.90;;;;;;5071805;28;20185;-76
2021/05/13 04:20:00;;;;;;;1999.90;999.90;;;8.30;99.90;;;;;;5073207;28;20674;-77
2021/05/13 04:22:26;;;;;;;1999.90;999.90;;;8.30;99.90;;;;;;5073376;28;20278;-76
2021/05/13 04:24:51;;;;;;;1999.90;999.90;;;8.20;99.90;;;;;;5073454;28;20171;-77
2021/05/13 04:27:17;;;;;;;1999.90;999.90;;;8.20;99.90;;;;;;5073148;28;20181;-77
2021/05/13 04:29:43;;;;;;;1999.90;999.90;;;8.20;99.90;;;;;;5073137;28;20257;-76
2021/05/13 04:32:09;;;;;;;1999.90;999.90;;;8.20;99.90;;;;;;5073155;28;20178;-77
2021/05/13 04:34:35;;;;;;;1999.90;999.90;;;8.20;99.90;;;;;;5073449;28;20205;-76
2021/05/13 04:37:00;;;;;;;1999.90;999.90;;;8.30;99.90;;;;;;5073636;28;20660;-76
2021/05/13 04:39:26;;;;;;;1999.90;999.90;;;8.30;99.90;;;;;;5072144;28;20204;-76
2021/05/13 04:41:52;;;;;;;1999.90;999.90;;;8.30;99.90;;;;;;5074294;28;20212;-76
2021/05/13 04:44:17;;;;;;;1999.90;999.90;;;8.30;99.90;;;;;;5073927;28;20663;-76
2021/05/13 04:46:44;;;;;;;1999.90;999.90;;;8.30;99.90;;;;;;5073478;28;20189;-76
2021/05/13 04:51:36;;;;;;;1999.90;999.90;;;8.30;99.90;;;;;;5068132;28;20799;-76
2021/05/13 04:54:03;;;;;;;1999.90;999.90;;;8.40;99.90;;;;;;5073212;28;20548;-76
2021/05/13 04:56:29;;;;;;;1999.90;999.90;;;8.40;99.90;;;;;;5073634;28;20322;-77
2021/05/13 04:58:55;;;;;;;1999.90;999.90;;;8.30;99.90;;;;;;5073211;28;20573;-78
2021/05/13 05:01:21;;;;;;;1999.90;999.90;;;8.30;99.90;;;;;;5073121;28;20184;-76
2021/05/13 05:03:47;;;;;;;1999.90;999.90;;;8.30;99.90;;;;;;5073230;28;20257;-77
2021/05/13 05:06:13;;;;;;;1999.90;999.90;;;8.30;99.90;;;;;;5073114;28;20186;-76
2021/05/13 05:08:39;;;;;;;1999.90;999.90;;;8.30;99.90;;;;;;5072998;28;20189;-76
2021/05/13 05:11:06;;;;;;;1999.90;999.90;;;8.20;99.90;;;;;;5072484;28;20259;-76
2021/05/13 05:13:32;;;;;;;1999.90;999.90;;;8.20;99.90;;;;;;5073076;28;20181;-76
2021/05/13 05:15:58;;;;;;;1999.90;999.90;;;8.20;99.90;;;;;;5072930;28;20667;-77
2021/05/13 05:18:25;;;;;;;1999.90;999.90;;;8.10;99.90;;;;;;5071483;28;20241;-77
2021/05/13 05:20:52;;;;;;;1999.90;999.90;;;8.20;99.90;;;;;;5072773;28;20293;-77
2021/05/13 05:23:19;;;;;;;1999.90;999.90;;;8.20;99.90;;;;;;5072743;28;20197;-76
2021/05/13 05:25:45;;;;;;;1999.90;999.90;;;8.20;99.90;;;;;;5072647;28;20185;-77
2021/05/13 05:28:11;;;;;;;1999.90;999.90;;;8.20;99.90;;;;;;5072739;28;20184;-77
2021/05/13 05:30:38;;;;;;;1999.90;999.90;;;8.30;99.90;;;;;;5072558;28;20287;-77
2021/05/13 05:33:06;;;;;;;1999.90;999.90;;;8.30;99.90;;;;;;5065889;28;20196;-77
2021/05/13 05:35:32;;;;;;;1999.90;999.90;;;8.30;99.90;;;;;;5072570;28;20387;-77
2021/05/13 05:37:59;;;;;;;1999.90;999.90;;;8.40;99.90;;;;;;5072626;28;20177;-77
2021/05/13 05:40:25;;;;;;;1999.90;999.90;;;8.40;99.90;;;;;;5072411;28;20259;-77
2021/05/13 05:42:52;;;;;;;1999.90;999.90;;;8.40;99.90;;;;;;5072553;28;20729;-76
2021/05/13 05:45:20;;;;;;;1999.90;999.90;;;8.40;99.90;;;;;;5071103;28;20227;-76
2021/05/13 05:47:47;;;;;;;1999.90;999.90;;;8.40;99.90;;;;;;5072905;28;20173;-77
2021/05/13 05:50:13;;;;;;;1999.90;999.90;;;8.50;99.90;;;;;;5073445;28;20206;-77
2021/05/13 05:52:38;;;;;;;1999.90;999.90;;;8.60;99.90;;;;;;5072177;28;20181;-77
2021/05/13 05:55:06;;;;;;;1999.90;999.90;;;8.70;99.90;;;;;;5063518;28;20173;-76
2021/05/13 05:57:32;;;;;;;1999.90;999.90;;;8.70;99.90;;;;;;5070830;28;20177;-75
2021/05/13 05:59:58;;;;;;;1999.90;999.90;;;8.70;99.90;;;;;;5070121;28;20570;-76
2021/05/13 06:02:27;;;;;;;1999.90;999.90;;;8.70;99.90;;;;;;5071648;28;21389;-77
2021/05/13 06:04:52;;;;;;;1999.90;999.90;;;8.80;99.90;;;;;;5061179;28;20271;-76
2021/05/13 06:07:19;;;;;;;1999.90;999.90;;;8.80;99.90;;;;;;5072712;28;20682;-78
2021/05/13 06:09:45;;;;;;;1999.90;999.90;;;8.90;99.90;;;;;;5070732;28;20238;-76
2021/05/13 06:12:12;;;;;;;1999.90;999.90;;;9.00;99.90;;;;;;5054815;28;20266;-77
2021/05/13 06:14:38;;;;;;;1999.90;999.90;;;9.00;99.90;;;;;;5054811;28;20197;-76
2021/05/13 06:17:04;;;;;;;1999.90;999.90;;;9.00;99.90;;;;;;5069685;28;20655;-76
2021/05/13 06:19:30;;;;;;;1999.90;999.90;;;9.00;99.90;;;;;;5074158;28;20288;-77
2021/05/13 06:21:56;;;;;;;1999.90;999.90;;;9.00;99.90;;;;;;5075465;28;20327;-76
2021/05/13 06:24:22;;;;;;;1999.90;999.90;;;9.00;99.90;;;;;;5060416;28;20190;-76
2021/05/13 06:26:56;;;;;;;1999.90;999.90;;;9.00;99.90;;;;;;5065348;28;20226;-76
2021/05/13 06:29:21;;;;;;;1999.90;999.90;;;9.10;99.90;;;;;;5058764;28;20201;-76
2021/05/13 06:31:47;;;;;;;1999.90;999.90;;;9.20;99.90;;;;;;5050052;28;20251;-77
2021/05/13 06:34:13;;;;;;;1999.90;999.90;;;9.10;99.90;;;;;;5060586;28;20278;-76
2021/05/13 06:36:42;;;;;;;1999.90;999.90;;;9.20;99.90;;;;;;5070182;28;20630;-76
2021/05/13 06:39:08;;;;;;;1999.90;999.90;;;9.20;99.90;;;;;;5056434;28;20184;-76
2021/05/13 06:41:34;;;;;;;1999.90;999.90;;;9.20;99.90;;;;;;5054364;28;20613;-77
2021/05/13 06:44:00;;;;;;;1999.90;999.90;;;9.20;99.90;;;;;;5072024;28;20212;-76
2021/05/13 06:46:25;;;;;;;1999.90;999.90;;;9.20;99.90;;;;;;5070102;28;20175;-76
2021/05/13 06:48:52;;;;;;;1999.90;999.90;;;9.20;99.90;;;;;;5071332;28;20207;-76
2021/05/13 06:51:18;;;;;;;1999.90;999.90;;;9.30;99.90;;;;;;5071179;28;20192;-76
2021/05/13 06:53:45;;;;;;;1999.90;999.90;;;9.30;99.90;;;;;;5071225;28;20246;-77
2021/05/13 06:56:11;;;;;;;1999.90;999.90;;;9.40;99.90;;;;;;5071390;28;20170;-77
2021/05/13 06:58:36;;;;;;;1999.90;999.90;;;9.40;99.90;;;;;;5071683;28;20233;-77
2021/05/13 07:01:02;;;;;;;1999.90;999.90;;;9.50;99.90;;;;;;5071171;28;20571;-76
2021/05/13 07:03:27;;;;;;;1999.90;999.90;;;9.50;99.90;;;;;;5069914;28;20185;-77
2021/05/13 07:05:53;;;;;;;1999.90;999.90;;;9.60;99.90;;;;;;5071102;28;20179;-77
2021/05/13 07:08:19;;;;;;;1999.90;999.90;;;9.50;99.90;;;;;;5070997;28;20194;-76
2021/05/13 07:10:44;;;;;;;1999.90;999.90;;;9.50;99.90;;;;;;5071056;28;20195;-77
2021/05/13 07:13:10;;;;;;;1999.90;999.90;;;9.60;99.90;;;;;;5071089;28;20236;-77
2021/05/13 07:15:36;;;;;;;1999.90;999.90;;;9.60;99.90;;;;;;5071049;28;20181;-76
2021/05/13 07:18:02;;;;;;;1999.90;999.90;;;9.60;99.90;;;;;;5071061;28;20182;-77
2021/05/13 07:20:28;;;;;;;1999.90;999.90;;;9.70;99.90;;;;;;5066971;28;20287;-76
2021/05/13 07:22:54;;;;;;;1999.90;999.90;;;9.70;99.90;;;;;;5063107;28;20288;-76
2021/05/13 07:25:21;;;;;;;1999.90;999.90;;;9.70;99.90;;;;;;5068128;28;20192;-77
2021/05/13 07:27:46;;;;;;;1999.90;999.90;;;9.90;99.90;;;;;;5070543;28;20204;-76
2021/05/13 07:30:15;;;;;;;1999.90;999.90;;;10.00;99.90;;;;;;5071680;28;20189;-77
2021/05/13 07:32:40;;;;;;;1999.90;999.90;;;10.20;99.90;;;;;;5066306;28;20224;-76
2021/05/13 07:35:07;;;;;;;1999.90;999.90;;;10.30;99.90;;;;;;5067131;28;20218;-76
2021/05/13 07:37:32;;;;;;;1999.90;999.90;;;10.40;99.90;;;;;;5079533;28;20182;-76
2021/05/13 07:39:58;;;;;;;1999.90;999.90;;;10.50;99.90;;;;;;5079511;28;20212;-76
2021/05/13 07:42:24;;;;;;;1999.90;999.90;;;10.50;99.90;;;;;;5079535;28;20191;-77
2021/05/13 07:44:49;;;;;;;1999.90;999.90;;;10.60;99.90;;;;;;5079616;28;20191;-76
2021/05/13 07:47:18;;;;;;;1999.90;999.90;;;10.50;99.90;;;;;;5079451;28;20178;-77
2021/05/13 07:49:43;;;;;;;1999.90;999.90;;;10.70;99.90;;;;;;5079426;28;20203;-76
2021/05/13 07:52:09;;;;;;;1999.90;999.90;;;10.80;99.90;;;;;;5079532;28;20186;-76
2021/05/13 07:54:35;;;;;;;1999.90;999.90;;;10.80;99.90;;;;;;5070682;28;20220;-76
2021/05/13 07:57:00;;;;;;;1999.90;999.90;;;10.80;99.90;;;;;;5078987;28;20174;-77
2021/05/13 07:59:26;;;;;;;1999.90;999.90;;;10.90;99.90;;;;;;5063503;28;20188;-76
2021/05/13 08:01:51;;;;;;;1999.90;999.90;;;11.10;99.90;;;;;;5079436;28;20187;-77
2021/05/13 08:04:17;;;;;;;1999.90;999.90;;;11.30;99.90;;;;;;5079410;28;20193;-76
2021/05/13 08:06:45;;;;;;;1999.90;999.90;;;11.40;99.90;;;;;;5078108;28;20179;-76
2021/05/13 08:09:11;;;;;;;1999.90;999.90;;;11.40;99.90;;;;;;5079291;28;20237;-76
2021/05/13 08:11:36;;;;;;;1999.90;999.90;;;11.50;99.90;;;;;;5079237;28;20224;-77
2021/05/13 08:14:02;;;;;;;1999.90;999.90;;;11.70;99.90;;;;;;5074219;28;20644;-76
2021/05/13 08:16:28;;;;;;;1999.90;999.90;;;11.60;99.90;;;;;;5079279;28;20533;-76
2021/05/13 08:18:54;;;;;;;1999.90;999.90;;;11.50;99.90;;;;;;5079077;28;20184;-77
2021/05/13 08:21:20;;;;;;;1999.90;999.90;;;11.50;99.90;;;;;;5079169;28;20726;-76
2021/05/13 08:23:45;;;;;;;1999.90;999.90;;;11.60;99.90;;;;;;5079194;28;20199;-77
2021/05/13 08:26:11;;;;;;;1999.90;999.90;;;11.70;99.90;;;;;;5079251;28;20614;-76
2021/05/13 08:28:37;;;;;;;1999.90;999.90;;;11.80;99.90;;;;;;5079020;28;20572;-76
2021/05/13 08:31:02;;;;;;;1999.90;999.90;;;11.90;99.90;;;;;;5075877;28;20198;-77
2021/05/13 08:33:28;;;;;;;1999.90;999.90;;;12.10;99.90;;;;;;5077149;28;20241;-77
2021/05/13 08:35:54;;;;;;;1999.90;999.90;;;12.30;99.90;;;;;;5076863;28;20722;-77
2021/05/13 08:38:19;;;;;;;1999.90;999.90;;;12.50;99.90;;;;;;5079470;28;20199;-76
2021/05/13 08:40:45;;;;;;;1999.90;999.90;;;12.80;99.90;;;;;;5079363;28;20270;-77
2021/05/13 08:43:27;;;;;;;1999.90;999.90;;;12.70;99.90;;;;;;5079556;28;20584;-77
2021/05/13 08:45:56;;;;;;;1999.90;999.90;;;12.60;99.90;;;;;;5064830;28;20183;-77
2021/05/13 08:48:25;;;;;;;1999.90;999.90;;;12.50;99.90;;;;;;5072347;28;20284;-78
2021/05/13 08:50:52;;;;;;;1999.90;999.90;;;12.40;99.90;;;;;;5073155;28;20201;-78
2021/05/13 08:53:18;;;;;;;1999.90;999.90;;;12.50;99.90;;;;;;5073462;28;20690;-77
2021/05/13 08:55:43;;;;;;;1999.90;999.90;;;12.50;99.90;;;;;;5075505;28;20176;-77
2021/05/13 08:58:09;;;;;;;1999.90;999.90;;;12.60;99.90;;;;;;5075689;28;20322;-77
2021/05/13 09:00:35;;;;;;;1999.90;999.90;;;12.70;99.90;;;;;;5075710;28;20680;-77
2021/05/13 09:03:04;;;;;;;1999.90;999.90;;;12.90;99.90;;;;;;5075716;28;20169;-77
2021/05/13 09:05:29;;;;;;;1999.90;999.90;;;13.00;99.90;;;;;;5075644;28;20185;-77
2021/05/13 09:07:55;;;;;;;1999.90;999.90;;;13.00;99.90;;;;;;5074296;28;20179;-77
2021/05/13 09:10:25;;;;;;;1999.90;999.90;;;13.10;99.90;;;;;;5075422;28;20196;-77
2021/05/13 09:12:52;;;;;;;1999.90;999.90;;;13.10;99.90;;;;;;5075496;28;20596;-77
2021/05/13 09:15:21;;;;;;;1999.90;999.90;;;13.20;99.90;;;;;;5074221;28;20184;-77
2021/05/13 09:17:52;;;;;;;1999.90;999.90;;;13.40;99.90;;;;;;5075450;28;20214;-77
2021/05/13 09:20:32;;;;;;;1999.90;999.90;;;13.50;99.90;;;;;;5074675;28;20254;-77
2021/05/13 09:23:09;;;;;;;1999.90;999.90;;;13.40;99.90;;;;;;5076433;28;20196;-76
2021/05/13 09:25:35;;;;;;;1999.90;999.90;;;13.30;99.90;;;;;;5075166;28;20203;-76
2021/05/13 09:28:01;;;;;;;1999.90;999.90;;;13.50;99.90;;;;;;5073976;28;20670;-77
2021/05/13 09:30:29;;;;;;;1999.90;999.90;;;13.80;99.90;;;;;;5075381;28;20570;-77
2021/05/13 09:32:58;;;;;;;1999.90;999.90;;;14.00;99.90;;;;;;5075383;28;20218;-77
2021/05/13 09:35:31;;;;;;;1999.90;999.90;;;14.20;99.90;;;;;;5075205;28;20195;-78
2021/05/13 09:38:05;;;;;;;1999.90;999.90;;;14.20;99.90;;;;;;5075353;28;20216;-77
2021/05/13 09:40:36;;;;;;;1999.90;999.90;;;14.00;99.90;;;;;;5073727;28;20202;-77
2021/05/13 09:43:19;;;;;;;1999.90;999.90;;;14.00;99.90;;;;;;5075171;28;20238;-77
2021/05/13 09:45:55;;;;;;;1999.90;999.90;;;13.70;99.90;;;;;;5075273;28;20207;-77
2021/05/13 09:48:40;;;;;;;1999.90;999.90;;;13.70;99.90;;;;;;5073765;28;20204;-77
2021/05/13 09:51:19;;;;;;;1999.90;999.90;;;13.90;99.90;;;;;;5074996;28;20189;-77
2021/05/13 09:53:46;;;;;;;1999.90;999.90;;;14.10;99.90;;;;;;5075388;28;20175;-76
2021/05/13 09:56:26;;;;;;;1999.90;999.90;;;14.40;99.90;;;;;;5074765;28;20599;-77
2021/05/13 09:58:52;;;;;;;1999.90;999.90;;;14.50;99.90;;;;;;5074890;28;20184;-77
2021/05/13 10:01:18;;;;;;;1999.90;999.90;;;14.50;99.90;;;;;;5074790;28;20281;-77
2021/05/13 10:03:45;;;;;;;1999.90;999.90;;;14.40;99.90;;;;;;5075040;28;20651;-77
2021/05/13 10:06:11;;;;;;;1999.90;999.90;;;14.50;99.90;;;;;;5074821;28;20181;-77
2021/05/13 10:08:46;;;;;;;1999.90;999.90;;;14.70;99.90;;;;;;5075024;28;20205;-77
2021/05/13 10:11:15;;;;;;;1999.90;999.90;;;15.00;99.90;;;;;;5073663;28;20714;-77
2021/05/13 10:13:42;;;;;;;1999.90;999.90;;;15.20;99.90;;;;;;5075127;28;20173;-77
2021/05/13 10:16:07;;;;;;;1999.90;999.90;;;15.30;99.90;;;;;;5074975;28;20261;-77
2021/05/13 10:18:40;;;;;;;1999.90;999.90;;;15.30;99.90;;;;;;5074879;28;20201;-77
2021/05/13 10:21:21;;;;;;;1999.90;999.90;;;15.00;99.90;;;;;;5073720;28;20200;-77
2021/05/13 10:23:52;;;;;;;1999.90;999.90;;;15.00;99.90;;;;;;5074714;28;20185;-77
2021/05/13 10:26:30;;;;;;;1999.90;999.90;;;15.10;99.90;;;;;;5075777;28;20212;-77
2021/05/13 10:28:56;;;;;;;1999.90;999.90;;;15.20;99.90;;;;;;5075872;28;20197;-77
2021/05/13 10:31:38;;;;;;;1999.90;999.90;;;15.20;99.90;;;;;;5075414;28;20189;-77
2021/05/13 10:34:04;;;;;;;1999.90;999.90;;;15.50;99.90;;;;;;5075077;28;20176;-77
2021/05/13 10:36:30;;;;;;;1999.90;999.90;;;15.70;99.90;;;;;;5066843;28;20174;-77
2021/05/13 10:39:11;;;;;;;1999.90;999.90;;;15.90;99.90;;;;;;5072936;28;20188;-77
2021/05/13 10:41:38;;;;;;;1999.90;999.90;;;16.20;99.90;;;;;;5074969;28;20604;-77
2021/05/13 10:44:10;;;;;;;1999.90;999.90;;;16.10;99.90;;;;;;5074084;28;20173;-77
2021/05/13 10:46:37;;;;;;;1999.90;999.90;;;16.00;99.90;;;;;;5073704;28;20542;-77
2021/05/13 10:49:16;;;;;;;1999.90;999.90;;;15.80;99.90;;;;;;5064615;28;20224;-77
2021/05/13 10:51:47;;;;;;;1999.90;999.90;;;15.60;99.90;;;;;;5059561;28;20205;-77
2021/05/13 10:54:27;;;;;;;1999.90;999.90;;;15.70;99.90;;;;;;5061924;28;20177;-77
2021/05/13 10:57:20;;;;;;;1999.90;999.90;;;15.90;99.90;;;;;;5060863;28;20640;-77
2021/05/13 11:00:08;;;;;;;1999.90;999.90;;;16.00;99.90;;;;;;5065919;28;20185;-77
2021/05/13 11:02:40;;;;;;;1999.90;999.90;;;15.90;99.90;;;;;;5067804;28;20192;-77
2021/05/13 11:05:32;;;;;;;1999.90;999.90;;;15.60;99.90;;;;;;5055943;28;20207;-77
2021/05/13 11:08:24;;;;;;;1999.90;999.90;;;15.30;99.90;;;;;;5057525;28;20218;-78
2021/05/13 11:10:58;;;;;;;1999.90;999.90;;;15.40;99.90;;;;;;5063631;28;20200;-77
2021/05/13 11:13:48;;;;;;;1999.90;999.90;;;15.50;99.90;;;;;;5056844;28;20177;-77
2021/05/13 11:16:44;;;;;;;1999.90;999.90;;;15.30;99.90;;;;;;5057007;28;20209;-78
2021/05/13 11:19:24;;;;;;;1999.90;999.90;;;15.30;99.90;;;;;;5059539;28;20176;-77
2021/05/13 11:22:03;;;;;;;1999.90;999.90;;;15.30;99.90;;;;;;5063358;28;20248;-78
2021/05/13 11:24:32;;;;;;;1999.90;999.90;;;15.40;99.90;;;;;;5067754;28;20181;-78
2021/05/13 11:26:58;;;;;;;1999.90;999.90;;;15.20;99.90;;;;;;5063312;28;20264;-77
2021/05/13 11:29:24;;;;;;;1999.90;999.90;;;15.00;99.90;;;;;;5064544;28;20297;-78
2021/05/13 11:31:51;;;;;;;1999.90;999.90;;;14.80;99.90;;;;;;5060124;28;20197;-77
2021/05/13 11:34:18;;;;;;;1999.90;999.90;;;14.80;99.90;;;;;;5061061;28;20177;-77
2021/05/13 11:36:46;;;;;;;1999.90;999.90;;;15.10;99.90;;;;;;5071497;28;20176;-76
2021/05/13 11:39:17;;;;;;;1999.90;999.90;;;15.30;99.90;;;;;;5063734;28;20617;-77
2021/05/13 11:41:45;;;;;;;1999.90;999.90;;;15.30;99.90;;;;;;5055190;28;20232;-78
2021/05/13 11:44:11;;;;;;;1999.90;999.90;;;15.10;99.90;;;;;;5074998;28;20177;-77
2021/05/13 11:46:38;;;;;;;1999.90;999.90;;;15.30;99.90;;;;;;5074975;28;20666;-77
2021/05/13 11:49:06;;;;;;;1999.90;999.90;;;15.30;99.90;;;;;;5073009;28;20219;-77
2021/05/13 11:51:35;;;;;;;1999.90;999.90;;;15.60;99.90;;;;;;5073760;28;20189;-77
2021/05/13 11:54:06;;;;;;;1999.90;999.90;;;15.50;99.90;;;;;;5073850;28;20177;-78
2021/05/13 11:56:33;;;;;;;1999.90;999.90;;;15.60;99.90;;;;;;5073388;28;20172;-77
2021/05/13 11:59:09;;;;;;;1999.90;999.90;;;15.60;99.90;;;;;;5073324;28;20673;-77
2021/05/13 12:01:36;;;;;;;1999.90;999.90;;;15.50;99.90;;;;;;5068843;28;20565;-75
2021/05/13 12:04:08;;;;;;;1999.90;999.90;;;15.20;99.90;;;;;;5064384;28;20177;-76
2021/05/13 12:07:01;;;;;;;1999.90;999.90;;;15.20;99.90;;;;;;5072473;28;20231;-76
2021/05/13 12:09:28;;;;;;;1999.90;999.90;;;15.20;99.90;;;;;;5071066;28;20208;-78
2021/05/13 12:11:55;;;;;;;1999.90;999.90;;;15.10;99.90;;;;;;5072163;28;20655;-76
2021/05/13 12:14:24;;;;;;;1999.90;999.90;;;15.20;99.90;;;;;;5072225;28;20200;-76
2021/05/13 12:16:57;;;;;;;1999.90;999.90;;;15.40;99.90;;;;;;5072172;28;20225;-77
2021/05/13 12:19:24;;;;;;;1999.90;999.90;;;15.20;99.90;;;;;;5070427;28;20185;-77